createdAt,value
2023-05-19T00:01:55.366Z,90.78
2023-05-19T00:05:59.028Z,90.74
2023-05-19T00:10:02.633Z,90.78
2023-05-19T00:14:09.582Z,90.84
2023-05-19T00:18:14.228Z,90.81
2023-05-19T00:22:17.060Z,90.96
2023-05-19T00:26:19.803Z,91.61
2023-05-19T00:30:23.036Z,91.89
2023-05-19T00:34:25.843Z,92.37
2023-05-19T00:38:43.912Z,92.94
2023-05-19T00:42:47.944Z,93.43
2023-05-19T00:46:51.869Z,93.88
2023-05-19T00:51:04.994Z,94.32
2023-05-19T00:55:09.319Z,94.73
2023-05-19T00:59:16.108Z,95.07
2023-05-19T01:07:25.476Z,95.55
2023-05-19T01:11:28.302Z,95.61
2023-05-19T01:15:37.320Z,95.66
2023-05-19T01:19:56.318Z,95.76
2023-05-19T01:24:32.692Z,96.22
2023-05-19T01:28:58.136Z,96.92
2023-05-19T01:33:05.013Z,97.48
2023-05-19T01:37:08.614Z,98.14
2023-05-19T01:41:19.369Z,99.57
2023-05-19T01:45:26.376Z,99.91
2023-05-19T01:49:29.609Z,100.00
2023-05-19T01:53:43.927Z,100.00
2023-05-19T01:58:01.522Z,100.00
2023-05-19T02:02:22.454Z,100.00
2023-05-19T02:06:53.679Z,100.00
2023-05-19T02:11:08.512Z,100.00
2023-05-19T02:15:17.869Z,100.00
2023-05-19T02:19:39.569Z,100.00
2023-05-19T02:23:42.766Z,100.00
2023-05-19T02:27:49.719Z,100.00
2023-05-19T02:31:52.590Z,100.00
2023-05-19T02:35:57.725Z,100.00
2023-05-19T02:40:01.124Z,100.00
2023-05-19T02:44:05.280Z,100.00
2023-05-19T02:48:14.819Z,100.00
2023-05-19T02:52:17.661Z,100.00
2023-05-19T02:56:49.600Z,100.00
2023-05-19T03:00:52.948Z,100.00
2023-05-19T03:04:55.709Z,100.00
2023-05-19T03:08:59.134Z,100.00
2023-05-19T03:13:17.190Z,100.00
2023-05-19T03:17:20.141Z,100.00
2023-05-19T03:22:16.521Z,100.00
2023-05-19T03:26:19.341Z,100.00
2023-05-19T03:30:22.521Z,100.00
2023-05-19T03:34:25.523Z,100.00
2023-05-19T03:38:28.231Z,100.00
2023-05-19T03:42:31.099Z,100.00
2023-05-19T03:46:33.879Z,100.00
2023-05-19T03:50:38.168Z,100.00
2023-05-19T03:54:42.722Z,100.00
2023-05-19T03:58:47.076Z,100.00
2023-05-19T04:02:49.982Z,100.00
2023-05-19T04:06:54.005Z,100.00
2023-05-19T04:10:59.856Z,100.00
2023-05-19T04:15:02.663Z,100.00
2023-05-19T04:19:05.786Z,100.00
2023-05-19T04:23:08.778Z,100.00
2023-05-19T04:27:38.929Z,100.00
2023-05-19T04:31:42.411Z,100.00
2023-05-19T04:35:51.806Z,100.00
2023-05-19T04:39:54.632Z,100.00
2023-05-19T04:43:58.399Z,100.00
2023-05-19T04:48:02.033Z,100.00
2023-05-19T04:52:11.100Z,99.82
2023-05-19T04:56:16.343Z,99.59
2023-05-19T05:00:19.790Z,99.99
2023-05-19T05:04:24.252Z,100.00
2023-05-19T05:08:32.197Z,100.00
2023-05-19T05:12:35.490Z,99.68
2023-05-19T05:17:07.935Z,99.37
2023-05-19T05:21:11.173Z,99.74
2023-05-19T05:25:14.846Z,99.81
2023-05-19T05:29:44.113Z,99.93
2023-05-19T05:33:47.068Z,100.00
2023-05-19T05:37:50.359Z,100.00
2023-05-19T05:41:53.192Z,100.00
2023-05-19T05:45:57.233Z,100.00
2023-05-19T05:50:26.205Z,100.00
2023-05-19T05:54:29.225Z,100.00
2023-05-19T05:58:36.354Z,100.00
2023-05-19T06:02:40.234Z,99.97
2023-05-19T06:06:43.176Z,99.17
2023-05-19T06:10:47.322Z,99.10
2023-05-19T06:14:50.397Z,97.96
2023-05-19T06:18:53.408Z,99.45
2023-05-19T06:27:17.142Z,99.94
2023-05-19T06:31:20.494Z,99.78
2023-05-19T06:35:23.812Z,99.03
2023-05-19T06:39:27.061Z,97.45
2023-05-19T06:43:30.384Z,98.60
2023-05-19T06:47:33.700Z,99.52
2023-05-19T06:51:40.163Z,99.73
2023-05-19T06:55:57.436Z,99.31
2023-05-19T07:00:02.476Z,98.80
2023-05-19T07:04:06.019Z,97.32
2023-05-19T07:08:09.200Z,96.25
2023-05-19T07:12:12.596Z,94.66
2023-05-19T07:16:17.304Z,91.74
2023-05-19T07:20:21.137Z,90.58
2023-05-19T07:24:24.369Z,91.02
2023-05-19T07:28:27.493Z,89.33
2023-05-19T07:32:30.624Z,87.46
2023-05-19T07:36:34.405Z,87.32
2023-05-19T07:40:37.688Z,88.04
2023-05-19T07:44:40.922Z,86.79
2023-05-19T07:48:44.267Z,85.02
2023-05-19T07:52:47.406Z,85.90
2023-05-19T07:56:50.656Z,86.33
2023-05-19T08:00:53.930Z,86.61
2023-05-19T08:04:58.170Z,87.08
2023-05-19T08:09:01.407Z,88.17
2023-05-19T08:13:05.355Z,87.34
2023-05-19T08:17:08.556Z,85.96
2023-05-19T08:21:12.060Z,87.05
2023-05-19T08:25:15.186Z,85.77
2023-05-19T08:29:18.278Z,85.55
2023-05-19T08:33:21.840Z,86.83
2023-05-19T08:37:25.208Z,87.21
2023-05-19T08:41:28.352Z,87.93
2023-05-19T08:45:34.790Z,87.66
2023-05-19T08:49:45.938Z,87.30
2023-05-19T08:53:53.872Z,85.97
2023-05-19T08:57:57.218Z,85.57
2023-05-19T09:02:00.406Z,84.22
2023-05-19T09:06:14.375Z,85.16
2023-05-19T09:10:17.715Z,87.35
2023-05-19T09:14:20.831Z,85.92
2023-05-19T09:18:26.583Z,85.79
2023-05-19T09:22:30.702Z,85.93
2023-05-19T09:26:42.819Z,83.78
2023-05-19T09:31:13.071Z,83.48
2023-05-19T09:35:20.723Z,82.57
2023-05-19T09:39:25.245Z,82.44
2023-05-19T09:43:30.315Z,80.51
2023-05-19T09:47:40.088Z,81.09
2023-05-19T09:51:44.056Z,80.06
2023-05-19T09:55:48.682Z,79.78
2023-05-19T09:59:51.799Z,79.42
2023-05-19T10:03:55.582Z,79.30
2023-05-19T10:07:58.710Z,78.04
2023-05-19T10:12:03.530Z,79.25
2023-05-19T10:16:07.087Z,78.73
2023-05-19T10:20:12.854Z,79.74
2023-05-19T10:24:15.892Z,77.41
2023-05-19T10:28:25.497Z,78.81
2023-05-19T10:32:32.740Z,78.56
2023-05-19T10:36:59.703Z,80.54
2023-05-19T10:41:21.619Z,80.95
2023-05-19T10:45:27.918Z,82.00
2023-05-19T10:49:35.631Z,82.93
2023-05-19T10:53:46.397Z,84.10
2023-05-19T10:57:58.414Z,82.80
2023-05-19T11:02:05.786Z,81.89
2023-05-19T11:06:18.924Z,81.82
2023-05-19T11:10:25.023Z,83.49
2023-05-19T11:14:28.150Z,82.51
2023-05-19T11:18:32.188Z,81.04
2023-05-19T11:22:36.382Z,79.27
2023-05-19T11:26:45.637Z,78.62
2023-05-19T11:30:52.457Z,79.48
2023-05-19T11:34:57.720Z,78.77
2023-05-19T11:39:02.749Z,79.62
2023-05-19T11:43:05.879Z,78.90
2023-05-19T11:47:09.720Z,78.34
2023-05-19T11:51:12.567Z,77.93
2023-05-19T11:55:16.523Z,78.61
2023-05-19T11:59:29.862Z,77.91
2023-05-19T12:03:33.160Z,77.20
2023-05-19T12:07:37.830Z,77.95
2023-05-19T12:11:40.915Z,77.23
2023-05-19T12:15:43.909Z,77.47
2023-05-19T12:19:48.792Z,78.14
2023-05-19T12:23:52.075Z,78.71
2023-05-19T12:28:04.691Z,79.56
2023-05-19T12:32:09.153Z,80.04
2023-05-19T12:36:13.673Z,78.58
2023-05-19T12:40:17.087Z,78.45
2023-05-19T12:44:20.044Z,78.09
2023-05-19T12:48:23.050Z,78.92
2023-05-19T12:52:29.038Z,79.61
2023-05-19T12:56:31.839Z,80.22
2023-05-19T13:00:41.223Z,80.47
2023-05-19T13:04:44.385Z,81.88
2023-05-19T13:08:47.391Z,82.11
2023-05-19T13:12:50.229Z,81.89
2023-05-19T13:16:53.314Z,82.48
2023-05-19T13:20:56.530Z,82.07
2023-05-19T13:24:59.922Z,80.95
2023-05-19T13:29:03.144Z,80.27
2023-05-19T13:33:06.318Z,80.26
2023-05-19T13:37:10.086Z,79.69
2023-05-19T13:41:15.939Z,80.57
2023-05-19T13:45:19.130Z,82.47
2023-05-19T13:49:22.818Z,82.79
2023-05-19T13:53:27.386Z,82.14
2023-05-19T13:57:30.618Z,81.26
2023-05-19T14:01:33.668Z,81.16
2023-05-19T14:05:37.413Z,81.33
2023-05-19T14:09:40.414Z,80.37
2023-05-19T14:13:43.513Z,79.21
2023-05-19T14:17:46.591Z,78.38
2023-05-19T14:21:50.858Z,79.36
2023-05-19T14:25:53.960Z,79.22
2023-05-19T14:29:57.351Z,79.71
2023-05-19T14:34:00.693Z,79.49
2023-05-19T14:38:03.850Z,80.88
2023-05-19T14:42:06.760Z,81.35
2023-05-19T14:46:09.818Z,82.10
2023-05-19T14:50:13.243Z,82.07
2023-05-19T14:54:16.037Z,82.28
2023-05-19T14:58:27.779Z,82.32
2023-05-19T15:02:31.854Z,80.16
2023-05-19T15:06:35.558Z,80.11
2023-05-19T15:10:38.680Z,80.80
2023-05-19T15:14:41.870Z,81.21
2023-05-19T15:18:45.052Z,81.89
2023-05-19T15:22:48.842Z,81.86
2023-05-19T15:26:52.509Z,82.57
2023-05-19T15:30:55.551Z,84.18
2023-05-19T15:34:58.535Z,85.77
2023-05-19T15:39:01.552Z,86.66
2023-05-19T15:43:04.478Z,87.11
2023-05-19T15:47:07.315Z,86.52
2023-05-19T15:51:11.570Z,87.01
2023-05-19T15:55:14.513Z,86.13
2023-05-19T15:59:17.346Z,84.39
2023-05-19T16:03:22.539Z,83.40
2023-05-19T16:07:25.546Z,83.38
2023-05-19T16:11:28.344Z,83.11
2023-05-19T16:15:31.224Z,83.04
2023-05-19T16:19:34.395Z,83.27
2023-05-19T16:23:37.379Z,84.02
2023-05-19T16:27:40.446Z,84.95
2023-05-19T16:31:43.280Z,84.77
2023-05-19T16:35:46.277Z,85.07
2023-05-19T16:39:49.130Z,84.92
2023-05-19T16:43:52.267Z,85.83
2023-05-19T16:47:55.349Z,86.15
2023-05-19T16:51:58.414Z,85.48
2023-05-19T16:56:01.476Z,85.95
2023-05-19T17:00:04.825Z,86.33
2023-05-19T17:04:08.293Z,87.33
2023-05-19T17:08:12.693Z,88.05
2023-05-19T17:12:15.512Z,87.66
2023-05-19T17:16:18.458Z,87.30
2023-05-19T17:20:21.561Z,87.35
2023-05-19T17:24:24.589Z,87.77
2023-05-19T17:28:27.781Z,88.42
2023-05-19T17:32:35.798Z,89.04
2023-05-19T17:36:39.275Z,89.38
2023-05-19T17:40:42.367Z,89.64
2023-05-19T17:44:45.343Z,89.56
2023-05-19T17:48:48.400Z,89.45
2023-05-19T17:52:51.601Z,89.88
2023-05-19T17:56:58.483Z,90.01
2023-05-19T18:01:01.990Z,90.12
2023-05-19T18:05:05.863Z,90.99
2023-05-19T18:09:10.566Z,91.63
2023-05-19T18:13:14.354Z,91.88
2023-05-19T18:17:17.582Z,92.49
2023-05-19T18:21:20.780Z,93.23
2023-05-19T18:25:24.369Z,93.60
2023-05-19T18:29:28.190Z,94.16
2023-05-19T18:33:31.921Z,94.41
2023-05-19T18:37:35.221Z,94.13
2023-05-19T18:41:41.211Z,94.14
2023-05-19T18:45:44.000Z,94.24
2023-05-19T18:49:47.581Z,94.02
2023-05-19T18:53:50.824Z,93.76
2023-05-19T18:57:54.523Z,93.76
2023-05-19T19:01:57.632Z,93.58
2023-05-19T19:06:00.772Z,93.51
2023-05-19T19:10:03.910Z,93.69
2023-05-19T19:14:07.372Z,93.98
2023-05-19T19:18:11.397Z,94.21
2023-05-19T19:22:14.348Z,94.19
2023-05-19T19:26:17.501Z,94.11
2023-05-19T19:30:20.491Z,94.36
2023-05-19T19:34:23.628Z,94.45
2023-05-19T19:38:26.644Z,94.53
2023-05-19T19:42:31.825Z,94.63
2023-05-19T19:46:35.851Z,95.09
2023-05-19T19:50:38.996Z,95.54
2023-05-19T19:54:42.229Z,96.20
2023-05-19T19:58:45.357Z,96.63
2023-05-19T20:03:03.860Z,97.66
2023-05-19T20:07:09.231Z,98.68
2023-05-19T20:11:12.240Z,99.33
2023-05-19T20:15:15.595Z,99.95
2023-05-19T20:19:18.886Z,99.95
2023-05-19T20:23:22.294Z,100.00
2023-05-19T20:27:25.531Z,100.00
2023-05-19T20:31:28.411Z,100.00
2023-05-19T20:35:32.062Z,100.00
2023-05-19T20:39:35.253Z,100.00
2023-05-19T20:43:38.236Z,100.00
2023-05-19T20:47:41.381Z,100.00
2023-05-19T20:51:44.361Z,100.00
2023-05-19T20:55:47.693Z,100.00
2023-05-19T20:59:51.106Z,100.00
2023-05-19T21:03:54.469Z,100.00
2023-05-19T21:07:57.678Z,100.00
2023-05-19T21:12:00.550Z,100.00
2023-05-19T21:16:03.789Z,100.00
2023-05-19T21:20:07.459Z,100.00
2023-05-19T21:24:13.216Z,100.00
2023-05-19T21:28:16.463Z,100.00
2023-05-19T21:32:20.464Z,100.00
2023-05-19T21:36:23.651Z,100.00
2023-05-19T21:40:26.777Z,100.00
2023-05-19T21:44:31.403Z,100.00
2023-05-19T21:48:34.429Z,100.00
2023-05-19T21:52:38.645Z,100.00
2023-05-19T21:56:41.827Z,100.00
2023-05-19T22:00:53.174Z,100.00
2023-05-19T22:04:56.280Z,100.00
2023-05-19T22:09:01.250Z,100.00
2023-05-19T22:13:04.223Z,100.00
2023-05-19T22:17:07.383Z,100.00
2023-05-19T22:21:10.785Z,100.00
2023-05-19T22:25:13.971Z,100.00
2023-05-19T22:29:18.711Z,100.00
2023-05-19T22:33:22.062Z,100.00
2023-05-19T22:37:25.192Z,100.00
2023-05-19T22:41:28.282Z,100.00
2023-05-19T22:45:32.014Z,100.00
2023-05-19T22:49:35.161Z,100.00
2023-05-19T22:53:38.219Z,100.00
2023-05-19T22:57:41.206Z,100.00
2023-05-19T23:01:46.562Z,100.00
2023-05-19T23:05:49.905Z,100.00
2023-05-19T23:09:52.936Z,100.00
2023-05-19T23:13:56.167Z,100.00
2023-05-19T23:17:59.124Z,100.00
2023-05-19T23:22:02.422Z,100.00
2023-05-19T23:26:06.005Z,100.00
2023-05-19T23:30:09.419Z,100.00
2023-05-19T23:34:12.710Z,100.00
2023-05-19T23:38:16.478Z,100.00
2023-05-19T23:42:19.732Z,100.00
2023-05-19T23:46:23.078Z,100.00
2023-05-19T23:50:26.385Z,100.00
2023-05-19T23:54:30.419Z,100.00
2023-05-19T23:58:33.522Z,100.00
